01:54
Airports
Links
Donate
Help keep this website running!
PayPal
Bitcoin
METAR
LICZ 240055Z 24005KT 9999 SCT020 10/10 Q1023 RMK SCT VIS MIN 9999 WIND THR28 23005KT WIND THR10 24005KT A3022 BLU
Current Weather Conditions at LICZ
VFR 00:55:00 24-11-17
Altimeter:30.21 hg
Temp:10.0°c 50°f
Dew point:10.0°c 50°f
Wind:5 knots, 5.8 mph, 3 m/s, from 240°
Visibility:6.21 statute miles
2000(SCT) Scattered
Past METAR reports
VFR 23:55:00 23-11-17
Altimeter:30.18 hg
Temp:10.0°c 50°f
Dew point:10.0°c 50°f
Wind:5 knots, 5.8 mph, 3 m/s, from 240°
Visibility:6.21 statute miles
2000(SCT) Scattered
LICZ 232355Z 24005KT 9999 SCT020 10/10 Q1022 RMK SCT VIS MIN 9999 WIND THR28 25006KT WIND THR10 25006KT A3021 BLU
VFR 22:55:00 23-11-17
Altimeter:30.21 hg
Temp:10.0°c 50°f
Dew point:10.0°c 50°f
Wind:4 knots, 4.6 mph, 2 m/s, from 270°
Visibility:6.21 statute miles
2000(SCT) Scattered
LICZ 232255Z 27004KT 9999 SCT020 10/10 Q1023 RMK SCT VIS MIN 9999 WIND THR2827004KT WIND THR10 28004T A3022 BLU
VFR 21:55:00 23-11-17
Altimeter:30.21 hg
Temp:10.0°c 50°f
Dew point:10.0°c 50°f
Wind:6 knots, 6.9 mph, 3 m/s, from 260°
Visibility:6.21 statute miles
2000(SCT) Scattered
LICZ 232155Z 26006KT 9999 SCT020 10/10 Q1023 RMK SCT VIS MIN 9999 WIND THR28 26006KT WIND THR10 27006KT A3021 BLU
VFR 20:55:00 23-11-17
Altimeter:30.21 hg
Temp:11.0°c 52°f
Dew point:11.0°c 52°f
Wind:5 knots, 5.8 mph, 3 m/s, from 270°
Visibility:6.21 statute miles
2000(SCT) Scattered
LICZ 232055Z 27005KT 9999 SCT020 11/11 Q1023 RMK SCT VIS MIN 9999 WIND THR28 27006KT WIND THR10 28006KT A3022 BLU
VFR 19:55:00 23-11-17
Altimeter:30.21 hg
Temp:12.0°c 54°f
Dew point:12.0°c 54°f
Wind:4 knots, 4.6 mph, 2 m/s, from 270°
Visibility:6.21 statute miles
2000(SCT) Scattered
LICZ 231955Z 27004KT 9999 SCT020 12/12 Q1023 RMK SCT VIS MIN 9999 WIND THR28 27005KT WIND THR10 27005KT A3022 BLU
TAF
TAF LICZ 232300Z 2400/2409 26005KT 6000 SCT020 TEMPO 2402/2406 VRB03KT 3500 BR SCT006
Forecast at LICZ
00:00 24-11-17 to 09:00 24-11-17
Wind:5 Knots from 260°
Visibility:3.73 statute miles
2000SCT Scattered
TEMPO 02:00 24-11-17 to 06:00 24-11-17
BR
Wind:3 Knots from 360°
Visibility:2.17 statute miles
600SCT Scattered